createdAt,value
2019-01-25T00:00:21.583Z,94951
2019-01-25T00:01:31.111Z,94950
2019-01-25T00:02:40.653Z,94947
2019-01-25T00:03:50.202Z,94947
2019-01-25T00:04:59.741Z,94949
2019-01-25T00:06:09.270Z,94948
2019-01-25T00:07:18.850Z,94952
2019-01-25T00:08:28.393Z,94952
2019-01-25T00:09:37.994Z,94949
2019-01-25T00:10:47.561Z,94950
2019-01-25T00:11:57.133Z,94951
2019-01-25T00:13:06.705Z,94949
2019-01-25T00:14:16.330Z,94960
2019-01-25T00:15:25.883Z,94950
2019-01-25T00:16:35.470Z,94952
2019-01-25T00:17:45.100Z,94953
2019-01-25T00:18:54.722Z,94952
2019-01-25T00:20:04.329Z,94949
2019-01-25T00:21:13.866Z,94949
2019-01-25T00:22:23.510Z,94951
2019-01-25T00:23:33.082Z,94954
2019-01-25T00:24:42.664Z,94950
2019-01-25T00:25:52.251Z,94953
2019-01-25T00:27:01.809Z,94953
2019-01-25T00:28:11.428Z,94948
2019-01-25T00:29:21.056Z,94950
2019-01-25T00:30:30.622Z,94951
2019-01-25T00:31:40.215Z,94955
2019-01-25T00:32:49.817Z,94949
2019-01-25T00:33:59.439Z,94954
2019-01-25T00:35:08.997Z,94952
2019-01-25T00:36:18.651Z,94958
2019-01-25T00:37:28.157Z,94950
2019-01-25T00:38:37.751Z,94955
2019-01-25T00:39:47.339Z,94957
2019-01-25T00:40:56.907Z,94963
2019-01-25T00:42:06.510Z,94959
2019-01-25T00:43:16.144Z,94958
2019-01-25T00:44:25.753Z,94958
2019-01-25T00:45:35.338Z,94960
2019-01-25T00:46:44.947Z,94961
2019-01-25T00:47:54.567Z,94960
2019-01-25T00:49:04.181Z,94961
2019-01-25T00:50:14.779Z,94959
2019-01-25T00:51:24.339Z,94956
2019-01-25T00:52:33.943Z,94958
2019-01-25T00:53:43.510Z,94958
2019-01-25T00:54:53.115Z,94956
2019-01-25T00:56:02.683Z,94962
2019-01-25T00:57:12.291Z,94963
2019-01-25T00:58:21.836Z,94961
2019-01-25T00:59:31.440Z,94965
2019-01-25T01:00:41.041Z,94969
2019-01-25T01:01:50.588Z,94970
2019-01-25T01:03:00.207Z,94977
2019-01-25T01:04:09.807Z,94972
2019-01-25T01:05:19.465Z,94974
2019-01-25T01:06:28.999Z,94976
2019-01-25T01:07:38.583Z,94984
2019-01-25T01:08:48.211Z,94976
2019-01-25T01:09:57.797Z,94982
2019-01-25T01:11:07.409Z,94977
2019-01-25T01:12:16.968Z,94979
2019-01-25T01:13:26.569Z,94977
2019-01-25T01:14:36.096Z,94981
2019-01-25T01:15:45.621Z,94973
2019-01-25T01:16:55.192Z,94974
2019-01-25T01:18:04.698Z,94977
2019-01-25T01:19:14.255Z,94979
2019-01-25T01:20:23.786Z,94982
2019-01-25T01:21:33.351Z,94978
2019-01-25T01:22:43.085Z,94977
2019-01-25T01:23:52.620Z,94982
2019-01-25T01:25:02.173Z,94980
2019-01-25T01:26:11.710Z,94987
2019-01-25T01:27:21.239Z,94991
2019-01-25T01:28:30.793Z,94991
2019-01-25T01:29:40.368Z,94993
2019-01-25T01:30:49.910Z,94994
2019-01-25T01:31:59.466Z,94991
2019-01-25T01:33:08.981Z,94986
2019-01-25T01:34:18.535Z,94990
2019-01-25T01:35:28.082Z,94988
2019-01-25T01:36:37.641Z,94991
2019-01-25T01:37:47.153Z,94992
2019-01-25T01:38:56.689Z,94994
2019-01-25T01:40:06.273Z,94996
2019-01-25T01:41:15.792Z,94997
2019-01-25T01:42:25.349Z,95001
2019-01-25T01:43:34.880Z,95002
2019-01-25T01:44:44.444Z,95001
2019-01-25T01:45:53.961Z,95003
2019-01-25T01:47:03.555Z,95002
2019-01-25T01:48:13.108Z,95002
2019-01-25T01:49:22.667Z,94999
2019-01-25T01:50:32.208Z,95004
2019-01-25T01:51:41.748Z,95002
2019-01-25T01:52:51.284Z,95005
2019-01-25T01:54:00.825Z,95004
2019-01-25T01:55:10.403Z,95003
2019-01-25T01:56:19.902Z,95005
2019-01-25T01:57:29.405Z,95011
2019-01-25T01:58:38.961Z,95003
2019-01-25T01:59:47.484Z,94999
2019-01-25T02:00:57.048Z,94999
2019-01-25T02:02:06.561Z,94998
2019-01-25T02:03:16.104Z,95000
2019-01-25T02:04:25.711Z,94997
2019-01-25T02:05:35.278Z,95002
2019-01-25T02:06:44.809Z,95010
2019-01-25T02:07:54.367Z,95006
2019-01-25T02:09:03.881Z,95009
2019-01-25T02:10:14.400Z,95005
2019-01-25T02:11:23.957Z,95012
2019-01-25T02:12:33.494Z,95009
2019-01-25T02:13:43.054Z,95008
2019-01-25T02:14:52.605Z,95012
2019-01-25T02:16:02.137Z,95010
2019-01-25T02:17:11.680Z,95010
2019-01-25T02:18:21.210Z,95009
2019-01-25T02:19:30.762Z,95009
2019-01-25T02:20:40.297Z,95003
2019-01-25T02:21:49.835Z,95010
2019-01-25T02:22:59.355Z,95007
2019-01-25T02:24:08.876Z,95006
2019-01-25T02:25:18.432Z,95009
2019-01-25T02:26:27.967Z,95005
2019-01-25T02:27:37.492Z,95009
2019-01-25T02:28:47.022Z,95009
2019-01-25T02:29:56.557Z,95009
2019-01-25T02:31:06.066Z,95007
2019-01-25T02:32:15.575Z,95009
2019-01-25T02:33:25.101Z,95002
2019-01-25T02:34:34.679Z,95004
2019-01-25T02:35:44.245Z,95005
2019-01-25T02:36:53.769Z,95011
2019-01-25T02:38:03.296Z,95009
2019-01-25T02:39:12.821Z,95009
2019-01-25T02:40:22.368Z,95008
2019-01-25T02:41:31.897Z,95009
2019-01-25T02:42:41.415Z,95005
2019-01-25T02:43:50.964Z,95009
2019-01-25T02:45:00.480Z,95015
2019-01-25T02:46:10.045Z,95014
2019-01-25T02:47:19.592Z,95017
2019-01-25T02:48:29.130Z,95018
2019-01-25T02:49:38.653Z,95013
2019-01-25T02:50:48.190Z,95009
2019-01-25T02:51:57.707Z,95018
2019-01-25T02:53:07.248Z,95009
2019-01-25T02:54:17.771Z,95013
2019-01-25T02:55:27.310Z,95015
2019-01-25T02:56:36.859Z,95016
2019-01-25T02:57:46.441Z,95009
2019-01-25T02:58:55.932Z,95012
2019-01-25T03:00:05.513Z,95019
2019-01-25T03:01:15.036Z,95021
2019-01-25T03:02:24.565Z,95016
2019-01-25T03:03:34.099Z,95021
2019-01-25T03:04:43.634Z,95025
2019-01-25T03:05:53.193Z,95027
2019-01-25T03:07:02.746Z,95025
2019-01-25T03:08:12.285Z,95021
2019-01-25T03:09:21.841Z,95026
2019-01-25T03:10:31.409Z,95022
2019-01-25T03:11:40.950Z,95025
2019-01-25T03:12:51.473Z,95027
2019-01-25T03:14:00.993Z,95027
2019-01-25T03:15:10.552Z,95023
2019-01-25T03:16:20.074Z,95029
2019-01-25T03:17:29.609Z,95034
2019-01-25T03:18:39.180Z,95034
2019-01-25T03:19:48.706Z,95041
2019-01-25T03:20:58.233Z,95035
2019-01-25T03:22:07.783Z,95034
2019-01-25T03:23:17.311Z,95032
2019-01-25T03:24:26.826Z,95031
2019-01-25T03:25:36.351Z,95034
2019-01-25T03:26:46.421Z,95037
2019-01-25T03:27:55.996Z,95030
2019-01-25T03:29:05.497Z,95036
2019-01-25T03:30:15.045Z,95031
2019-01-25T03:31:24.579Z,95040
2019-01-25T03:32:34.126Z,95039
2019-01-25T03:33:43.647Z,95044
2019-01-25T03:34:53.215Z,95041
2019-01-25T03:36:02.752Z,95042
2019-01-25T03:37:12.323Z,95042
2019-01-25T03:38:21.845Z,95045
2019-01-25T03:39:31.374Z,95047
2019-01-25T03:40:40.940Z,95039
2019-01-25T03:41:51.479Z,95048
2019-01-25T03:43:01.045Z,95051
2019-01-25T03:44:10.574Z,95050
2019-01-25T03:45:20.123Z,95050
2019-01-25T03:46:29.698Z,95053
2019-01-25T03:47:39.240Z,95050
2019-01-25T03:48:48.768Z,95054
2019-01-25T03:49:58.304Z,95055
2019-01-25T03:51:07.833Z,95056
2019-01-25T03:52:17.394Z,95059
2019-01-25T03:53:26.975Z,95057
2019-01-25T03:54:36.495Z,95050
2019-01-25T03:55:46.028Z,95055
2019-01-25T03:56:55.576Z,95062
2019-01-25T03:58:05.094Z,95058
2019-01-25T03:59:14.635Z,95063
2019-01-25T04:00:24.192Z,95062
2019-01-25T04:01:33.748Z,95063
2019-01-25T04:02:43.356Z,95061
2019-01-25T04:03:52.922Z,95064
2019-01-25T04:05:02.457Z,95062
2019-01-25T04:06:11.981Z,95064
2019-01-25T04:07:21.514Z,95062
2019-01-25T04:08:30.063Z,95062
2019-01-25T04:09:39.595Z,95070
2019-01-25T04:10:49.127Z,95066
2019-01-25T04:11:59.681Z,95070
2019-01-25T04:13:09.213Z,95062
2019-01-25T04:14:18.751Z,95066
2019-01-25T04:15:28.351Z,95067
2019-01-25T04:16:37.965Z,95066
2019-01-25T04:17:47.593Z,95067
2019-01-25T04:18:57.212Z,95069
2019-01-25T04:20:06.803Z,95077
2019-01-25T04:21:16.407Z,95075
2019-01-25T04:22:26.036Z,95067
2019-01-25T04:23:35.710Z,95072
2019-01-25T04:24:45.270Z,95073
2019-01-25T04:25:54.800Z,95068
2019-01-25T04:27:04.325Z,95074
2019-01-25T04:28:13.843Z,95065
2019-01-25T04:29:23.367Z,95076
2019-01-25T04:30:33.174Z,95069
2019-01-25T04:31:41.397Z,95074
2019-01-25T04:32:51.007Z,95073
2019-01-25T04:34:00.553Z,95079
2019-01-25T04:35:10.098Z,95077
2019-01-25T04:36:19.643Z,95075
2019-01-25T04:37:29.184Z,95072
2019-01-25T04:38:38.693Z,95074
2019-01-25T04:39:48.248Z,95073
2019-01-25T04:40:57.782Z,95071
2019-01-25T04:42:08.324Z,95066
2019-01-25T04:43:17.877Z,95077
2019-01-25T04:44:28.390Z,95074
2019-01-25T04:45:37.900Z,95078
2019-01-25T04:46:47.429Z,95078
2019-01-25T04:47:57.110Z,95076
2019-01-25T04:49:06.655Z,95075
2019-01-25T04:50:16.202Z,95077
2019-01-25T04:51:25.792Z,95077
2019-01-25T04:52:35.347Z,95070
2019-01-25T04:53:45.008Z,95075
2019-01-25T04:54:54.515Z,95071
2019-01-25T04:56:04.036Z,95078
2019-01-25T04:57:13.571Z,95083
2019-01-25T04:58:23.094Z,95082
2019-01-25T04:59:32.622Z,95084
2019-01-25T05:00:42.198Z,95079
2019-01-25T05:01:52.186Z,95078
2019-01-25T05:03:01.521Z,95083
2019-01-25T05:04:11.050Z,95084
2019-01-25T05:05:20.732Z,95087
2019-01-25T05:06:30.321Z,95084
2019-01-25T05:07:39.882Z,95083
2019-01-25T05:08:49.402Z,95078
2019-01-25T05:09:58.961Z,95079
2019-01-25T05:11:08.511Z,95084
2019-01-25T05:12:19.055Z,95085
2019-01-25T05:13:28.589Z,95075
2019-01-25T05:14:38.204Z,95083
2019-01-25T05:15:47.848Z,95080
2019-01-25T05:16:57.409Z,95080
2019-01-25T05:18:06.969Z,95075
2019-01-25T05:19:16.566Z,95074
2019-01-25T05:20:26.171Z,95078
2019-01-25T05:21:35.803Z,95074
2019-01-25T05:22:45.418Z,95077
2019-01-25T05:23:55.996Z,95086
2019-01-25T05:25:05.564Z,95082
2019-01-25T05:26:15.175Z,95087
2019-01-25T05:27:24.723Z,95083
2019-01-25T05:28:34.285Z,95086
2019-01-25T05:29:43.945Z,95086
2019-01-25T05:30:53.606Z,95085
2019-01-25T05:32:03.169Z,95085
2019-01-25T05:33:12.692Z,95089
2019-01-25T05:34:22.229Z,95089
2019-01-25T05:35:31.829Z,95093
2019-01-25T05:36:41.449Z,95089
2019-01-25T05:37:51.126Z,95089
2019-01-25T05:39:00.722Z,95086
2019-01-25T05:40:10.302Z,95094
2019-01-25T05:41:27.790Z,95095
2019-01-25T05:42:30.471Z,95100
2019-01-25T05:43:40.038Z,95095
2019-01-25T05:44:49.654Z,95093
2019-01-25T05:45:59.184Z,95093
2019-01-25T05:47:08.835Z,95096
2019-01-25T05:48:18.477Z,95096
2019-01-25T05:49:28.007Z,95093
2019-01-25T05:50:37.532Z,95097
2019-01-25T05:51:47.067Z,95104
2019-01-25T05:52:56.679Z,95103
2019-01-25T05:54:06.327Z,95101
2019-01-25T05:55:15.960Z,95098
2019-01-25T05:56:25.486Z,95102
2019-01-25T05:57:35.139Z,95104
2019-01-25T05:58:44.656Z,95108
2019-01-25T05:59:54.189Z,95106
2019-01-25T06:01:03.731Z,95107
2019-01-25T06:02:13.307Z,95105
2019-01-25T06:03:22.854Z,95111
2019-01-25T06:04:32.382Z,95108
2019-01-25T06:05:41.914Z,95113
2019-01-25T06:06:51.462Z,95114
2019-01-25T06:08:01.032Z,95112
2019-01-25T06:09:10.549Z,95110
2019-01-25T06:10:20.086Z,95110
2019-01-25T06:11:35.341Z,95114
2019-01-25T06:12:39.104Z,95115
2019-01-25T06:13:48.748Z,95117
2019-01-25T06:14:58.258Z,95118
2019-01-25T06:16:07.756Z,95121
2019-01-25T06:17:17.309Z,95127
2019-01-25T06:18:26.857Z,95124
2019-01-25T06:19:37.130Z,95123
2019-01-25T06:20:46.023Z,95122
2019-01-25T06:21:55.567Z,95127
2019-01-25T06:23:05.113Z,95120
2019-01-25T06:24:14.650Z,95121
2019-01-25T06:25:24.174Z,95123
2019-01-25T06:26:33.721Z,95125
2019-01-25T06:27:43.253Z,95128
2019-01-25T06:28:52.774Z,95127
2019-01-25T06:30:02.315Z,95128
2019-01-25T06:31:11.845Z,95123
2019-01-25T06:32:21.390Z,95128
2019-01-25T06:33:30.971Z,95130
2019-01-25T06:34:40.485Z,95130
2019-01-25T06:35:50.006Z,95128
2019-01-25T06:36:59.528Z,95127
2019-01-25T06:38:09.133Z,95128
2019-01-25T06:39:18.666Z,95133
2019-01-25T06:40:28.198Z,95134
2019-01-25T06:41:43.932Z,95131
2019-01-25T06:42:47.278Z,95133
2019-01-25T06:43:56.803Z,95137
2019-01-25T06:45:06.345Z,95132
2019-01-25T06:46:15.906Z,95137
2019-01-25T06:47:25.419Z,95135
2019-01-25T06:48:34.970Z,95135
2019-01-25T06:49:44.485Z,95143
2019-01-25T06:50:54.053Z,95137
2019-01-25T06:52:03.596Z,95139
2019-01-25T06:53:13.146Z,95140
2019-01-25T06:54:22.651Z,95138
2019-01-25T06:55:32.203Z,95145
2019-01-25T06:56:41.759Z,95146
2019-01-25T06:57:51.308Z,95146
2019-01-25T06:59:00.864Z,95147
2019-01-25T07:00:10.391Z,95145
2019-01-25T07:01:19.914Z,95148
2019-01-25T07:02:29.455Z,95146
2019-01-25T07:03:39.027Z,95149
2019-01-25T07:04:48.557Z,95150
2019-01-25T07:05:58.101Z,95153
2019-01-25T07:07:07.655Z,95150
2019-01-25T07:08:17.191Z,95148
2019-01-25T07:09:26.799Z,95152
2019-01-25T07:10:36.323Z,95158
2019-01-25T07:11:51.419Z,95157
2019-01-25T07:12:56.378Z,95152
2019-01-25T07:14:05.912Z,95158
2019-01-25T07:15:15.455Z,95151
2019-01-25T07:16:24.978Z,95152
2019-01-25T07:17:34.520Z,95151
2019-01-25T07:18:43.070Z,95153
2019-01-25T07:19:52.622Z,95154
2019-01-25T07:21:02.148Z,95154
2019-01-25T07:22:11.674Z,95153
2019-01-25T07:23:21.189Z,95156
2019-01-25T07:24:30.721Z,95160
2019-01-25T07:25:40.263Z,95155
2019-01-25T07:26:49.794Z,95159
2019-01-25T07:27:59.344Z,95161
2019-01-25T07:29:08.899Z,95159
2019-01-25T07:30:18.426Z,95158
2019-01-25T07:31:27.960Z,95162
2019-01-25T07:32:37.516Z,95159
2019-01-25T07:33:46.048Z,95160
2019-01-25T07:34:55.616Z,95164
2019-01-25T07:36:05.156Z,95163
2019-01-25T07:37:14.675Z,95168
2019-01-25T07:38:24.223Z,95164
2019-01-25T07:39:33.792Z,95171
2019-01-25T07:40:43.330Z,95176
2019-01-25T07:41:59.111Z,95170
2019-01-25T07:43:03.375Z,95173
2019-01-25T07:44:13.913Z,95173
2019-01-25T07:45:23.443Z,95178
2019-01-25T07:46:32.971Z,95176
2019-01-25T07:47:42.505Z,95179
2019-01-25T07:48:52.036Z,95175
2019-01-25T07:50:01.600Z,95181
2019-01-25T07:51:11.124Z,95178
2019-01-25T07:52:20.650Z,95186
2019-01-25T07:53:30.180Z,95186
2019-01-25T07:54:39.725Z,95185
2019-01-25T07:55:49.261Z,95191
2019-01-25T07:56:58.787Z,95184
2019-01-25T07:58:08.310Z,95183
2019-01-25T07:59:17.892Z,95179
2019-01-25T08:00:27.367Z,95186
2019-01-25T08:01:36.904Z,95183
2019-01-25T08:02:46.451Z,95187
2019-01-25T08:03:55.956Z,95192
2019-01-25T08:05:05.510Z,95192
2019-01-25T08:06:15.074Z,95194
2019-01-25T08:07:24.662Z,95192
2019-01-25T08:08:34.157Z,95197
2019-01-25T08:09:43.723Z,95203
2019-01-25T08:10:53.283Z,95201
2019-01-25T08:12:07.201Z,95204
2019-01-25T08:13:12.345Z,95208
2019-01-25T08:14:21.888Z,95212
2019-01-25T08:15:31.432Z,95215
2019-01-25T08:16:40.960Z,95212
2019-01-25T08:17:50.479Z,95210
2019-01-25T08:18:59.994Z,95208
2019-01-25T08:20:09.562Z,95214
2019-01-25T08:21:19.113Z,95210
2019-01-25T08:22:28.634Z,95205
2019-01-25T08:23:38.172Z,95207
2019-01-25T08:24:47.742Z,95204
2019-01-25T08:25:57.248Z,95212
2019-01-25T08:27:06.845Z,95212
2019-01-25T08:28:16.377Z,95213
2019-01-25T08:29:28.009Z,95215
2019-01-25T08:30:35.446Z,95218
2019-01-25T08:31:44.981Z,95216
2019-01-25T08:32:54.509Z,95218
2019-01-25T08:34:04.031Z,95217
2019-01-25T08:35:13.610Z,95219
2019-01-25T08:36:23.158Z,95223
2019-01-25T08:37:32.695Z,95225
2019-01-25T08:38:42.238Z,95227
2019-01-25T08:39:51.767Z,95225
2019-01-25T08:41:01.313Z,95225
2019-01-25T08:42:15.378Z,95227
2019-01-25T08:43:20.376Z,95227
2019-01-25T08:44:29.921Z,95223
2019-01-25T08:45:39.451Z,95226
2019-01-25T08:46:49.001Z,95230
2019-01-25T08:47:58.525Z,95232
2019-01-25T08:49:08.042Z,95226
2019-01-25T08:50:17.589Z,95229
2019-01-25T08:51:27.119Z,95230
2019-01-25T08:52:36.646Z,95231
2019-01-25T08:53:46.194Z,95233
2019-01-25T08:54:55.755Z,95234
2019-01-25T08:56:05.286Z,95232
2019-01-25T08:57:14.814Z,95227
2019-01-25T08:58:24.392Z,95234
2019-01-25T08:59:33.888Z,95238
2019-01-25T09:00:43.401Z,95238
2019-01-25T09:01:52.937Z,95234
2019-01-25T09:03:02.460Z,95237
2019-01-25T09:04:11.998Z,95237
2019-01-25T09:05:21.541Z,95238
2019-01-25T09:06:31.096Z,95235
2019-01-25T09:07:40.615Z,95236
2019-01-25T09:08:50.185Z,95235
2019-01-25T09:09:59.756Z,95236
2019-01-25T09:11:09.310Z,95235
2019-01-25T09:12:23.191Z,95234
2019-01-25T09:13:28.430Z,95239
2019-01-25T09:14:37.978Z,95237
2019-01-25T09:15:47.568Z,95241
2019-01-25T09:16:57.136Z,95240
2019-01-25T09:18:06.691Z,95242
2019-01-25T09:19:16.279Z,95241
2019-01-25T09:20:25.998Z,95239
2019-01-25T09:21:35.646Z,95242
2019-01-25T09:22:45.339Z,95244
2019-01-25T09:23:55.011Z,95242
2019-01-25T09:25:04.706Z,95246
2019-01-25T09:26:14.339Z,95246
2019-01-25T09:27:23.986Z,95241
2019-01-25T09:28:33.609Z,95247
2019-01-25T09:29:43.355Z,95244
2019-01-25T09:30:52.984Z,95242
2019-01-25T09:32:02.596Z,95249
2019-01-25T09:33:12.211Z,95246
2019-01-25T09:34:21.839Z,95251
2019-01-25T09:35:31.461Z,95249
2019-01-25T09:36:41.219Z,95251
2019-01-25T09:37:50.850Z,95253
2019-01-25T09:39:00.493Z,95256
2019-01-25T09:40:10.083Z,95254
2019-01-25T09:41:19.615Z,95252
2019-01-25T09:42:31.085Z,95260
2019-01-25T09:43:37.681Z,95258
2019-01-25T09:44:47.229Z,95263
2019-01-25T09:45:56.780Z,95257
2019-01-25T09:47:06.323Z,95258
2019-01-25T09:48:15.907Z,95265
2019-01-25T09:49:25.469Z,95258
2019-01-25T09:50:35.005Z,95260
2019-01-25T09:51:44.553Z,95256
2019-01-25T09:52:54.098Z,95261
2019-01-25T09:54:02.615Z,95264
2019-01-25T09:55:12.200Z,95262
2019-01-25T09:56:21.805Z,95261
2019-01-25T09:57:31.327Z,95266
2019-01-25T09:58:40.853Z,95267
2019-01-25T09:59:50.415Z,95267
2019-01-25T10:00:59.986Z,95267
2019-01-25T10:02:09.644Z,95272
2019-01-25T10:03:19.152Z,95272
2019-01-25T10:04:28.679Z,95270
2019-01-25T10:05:38.228Z,95269
2019-01-25T10:06:47.827Z,95262
2019-01-25T10:07:57.372Z,95266
2019-01-25T10:09:06.942Z,95266
2019-01-25T10:10:16.453Z,95266
2019-01-25T10:11:26.036Z,95260
2019-01-25T10:12:43.040Z,95262
2019-01-25T10:13:46.118Z,95266
2019-01-25T10:14:55.659Z,95272
2019-01-25T10:16:05.218Z,95272
2019-01-25T10:17:13.795Z,95267
2019-01-25T10:18:24.898Z,95270
2019-01-25T10:19:32.922Z,95267
2019-01-25T10:20:42.431Z,95265
2019-01-25T10:21:52.087Z,95266
2019-01-25T10:23:01.672Z,95263
2019-01-25T10:24:11.255Z,95266
2019-01-25T10:25:20.836Z,95266
2019-01-25T10:26:30.427Z,95268
2019-01-25T10:27:39.988Z,95269
2019-01-25T10:28:50.500Z,95270
2019-01-25T10:30:00.151Z,95264
2019-01-25T10:31:09.674Z,95268
2019-01-25T10:32:18.291Z,95270
2019-01-25T10:33:27.928Z,95270
2019-01-25T10:34:37.584Z,95272
2019-01-25T10:35:47.256Z,95270
2019-01-25T10:36:56.927Z,95269
2019-01-25T10:38:06.617Z,95272
2019-01-25T10:39:16.273Z,95275
2019-01-25T10:40:25.808Z,95274
2019-01-25T10:41:35.404Z,95279
2019-01-25T10:42:52.658Z,95277
2019-01-25T10:43:55.497Z,95274
2019-01-25T10:45:05.008Z,95277
2019-01-25T10:46:14.544Z,95276
2019-01-25T10:47:24.187Z,95272
2019-01-25T10:48:33.765Z,95277
2019-01-25T10:49:43.296Z,95275
2019-01-25T10:50:52.832Z,95276
2019-01-25T10:52:02.389Z,95270
2019-01-25T10:53:11.923Z,95270
2019-01-25T10:54:21.516Z,95267
2019-01-25T10:55:31.048Z,95270
2019-01-25T10:56:41.972Z,95275
2019-01-25T10:57:50.163Z,95269
2019-01-25T10:58:59.708Z,95266
2019-01-25T11:00:09.215Z,95271
2019-01-25T11:01:18.735Z,95269
2019-01-25T11:02:28.277Z,95271
2019-01-25T11:03:37.836Z,95269
2019-01-25T11:04:47.393Z,95270
2019-01-25T11:05:56.915Z,95274
2019-01-25T11:07:06.471Z,95262
2019-01-25T11:08:16.018Z,95264
2019-01-25T11:09:25.548Z,95258
2019-01-25T11:10:35.071Z,95268
2019-01-25T11:11:44.618Z,95264
2019-01-25T11:13:00.672Z,95270
2019-01-25T11:14:03.657Z,95265
2019-01-25T11:15:13.178Z,95266
2019-01-25T11:16:22.684Z,95266
2019-01-25T11:17:36.336Z,95266
2019-01-25T11:18:41.733Z,95272
2019-01-25T11:19:51.267Z,95269
2019-01-25T11:21:00.817Z,95269
2019-01-25T11:22:10.380Z,95262
2019-01-25T11:23:19.902Z,95266
2019-01-25T11:24:29.456Z,95260
2019-01-25T11:25:38.991Z,95267
2019-01-25T11:26:48.589Z,95264
2019-01-25T11:27:58.125Z,95267
2019-01-25T11:29:07.674Z,95268
2019-01-25T11:30:17.186Z,95270
2019-01-25T11:31:26.736Z,95267
2019-01-25T11:32:36.327Z,95268
2019-01-25T11:33:45.839Z,95267
2019-01-25T11:34:55.382Z,95261
2019-01-25T11:36:04.936Z,95256
2019-01-25T11:37:14.479Z,95256
2019-01-25T11:38:23.996Z,95264
2019-01-25T11:39:33.514Z,95255
2019-01-25T11:40:43.044Z,95265
2019-01-25T11:41:52.575Z,95264
2019-01-25T11:43:08.366Z,95275
2019-01-25T11:44:11.645Z,95268
2019-01-25T11:45:21.204Z,95269
2019-01-25T11:46:30.737Z,95273
2019-01-25T11:47:40.314Z,95264
2019-01-25T11:48:49.837Z,95268
2019-01-25T11:49:59.424Z,95266
2019-01-25T11:51:08.965Z,95269
2019-01-25T11:52:18.553Z,95263
2019-01-25T11:53:28.068Z,95258
2019-01-25T11:54:37.586Z,95264
2019-01-25T11:55:47.198Z,95268
2019-01-25T11:56:56.697Z,95271
2019-01-25T11:58:06.269Z,95266
2019-01-25T11:59:15.822Z,95277
2019-01-25T12:00:25.376Z,95269
2019-01-25T12:01:34.916Z,95275
2019-01-25T12:02:44.464Z,95285
2019-01-25T12:03:54.021Z,95270
2019-01-25T12:05:03.571Z,95275
2019-01-25T12:06:13.123Z,95288
2019-01-25T12:07:22.652Z,95271
2019-01-25T12:08:32.296Z,95275
2019-01-25T12:09:41.852Z,95268
2019-01-25T12:10:51.383Z,95274
2019-01-25T12:12:00.918Z,95268
2019-01-25T12:13:15.990Z,95273
2019-01-25T12:14:20.034Z,95272
2019-01-25T12:15:29.553Z,95273
2019-01-25T12:16:39.106Z,95280
2019-01-25T12:17:48.653Z,95274
2019-01-25T12:18:58.164Z,95267
2019-01-25T12:20:07.724Z,95270
2019-01-25T12:21:17.267Z,95270
2019-01-25T12:22:26.781Z,95275
2019-01-25T12:23:37.329Z,95270
2019-01-25T12:24:46.830Z,95267
2019-01-25T12:25:56.408Z,95273
2019-01-25T12:27:05.933Z,95271
2019-01-25T12:28:15.474Z,95269
2019-01-25T12:29:25.041Z,95277
2019-01-25T12:30:37.643Z,95267
2019-01-25T12:31:44.027Z,95283
2019-01-25T12:32:53.587Z,95263
2019-01-25T12:34:03.095Z,95268
2019-01-25T12:35:12.616Z,95270
2019-01-25T12:36:22.145Z,95264
2019-01-25T12:37:31.656Z,95262
2019-01-25T12:38:41.208Z,95267
2019-01-25T12:39:50.724Z,95261
2019-01-25T12:41:00.268Z,95255
2019-01-25T12:42:09.828Z,95248
2019-01-25T12:43:23.831Z,95253
2019-01-25T12:44:29.032Z,95254
2019-01-25T12:45:38.584Z,95256
2019-01-25T12:46:48.104Z,95257
2019-01-25T12:47:57.681Z,95263
2019-01-25T12:49:07.225Z,95266
2019-01-25T12:50:16.757Z,95264
2019-01-25T12:51:26.274Z,95268
2019-01-25T12:52:35.804Z,95271
2019-01-25T12:53:45.389Z,95266
2019-01-25T12:54:54.925Z,95267
2019-01-25T12:56:04.467Z,95278
2019-01-25T12:57:13.981Z,95273
2019-01-25T12:58:23.538Z,95272
2019-01-25T12:59:34.071Z,95269
2019-01-25T13:00:43.612Z,95273
2019-01-25T13:01:53.154Z,95275
2019-01-25T13:03:02.717Z,95272
2019-01-25T13:04:12.230Z,95282
2019-01-25T13:05:21.743Z,95276
2019-01-25T13:06:31.281Z,95273
2019-01-25T13:07:40.783Z,95279
2019-01-25T13:08:50.389Z,95276
2019-01-25T13:09:59.921Z,95280
2019-01-25T13:11:09.427Z,95281
2019-01-25T13:12:18.969Z,95272
2019-01-25T13:13:31.598Z,95277
2019-01-25T13:14:38.051Z,95268
2019-01-25T13:15:47.595Z,95270
2019-01-25T13:16:57.138Z,95271
2019-01-25T13:18:06.758Z,95266
2019-01-25T13:19:16.308Z,95263
2019-01-25T13:20:25.832Z,95265
2019-01-25T13:21:35.406Z,95267
2019-01-25T13:22:44.923Z,95265
2019-01-25T13:23:54.466Z,95279
2019-01-25T13:25:03.983Z,95280
2019-01-25T13:26:13.528Z,95281
2019-01-25T13:27:23.074Z,95280
2019-01-25T13:28:32.667Z,95289
2019-01-25T13:29:43.164Z,95284
2019-01-25T13:30:52.686Z,95290
2019-01-25T13:32:02.221Z,95288
2019-01-25T13:33:11.772Z,95287
2019-01-25T13:34:21.308Z,95285
2019-01-25T13:35:30.869Z,95285
2019-01-25T13:36:40.403Z,95286
2019-01-25T13:37:50.017Z,95287
2019-01-25T13:38:59.669Z,95281
2019-01-25T13:40:09.215Z,95276
2019-01-25T13:41:18.744Z,95281
2019-01-25T13:42:29.247Z,95283
2019-01-25T13:43:39.280Z,95285
2019-01-25T13:44:48.329Z,95292
2019-01-25T13:45:57.855Z,95281
2019-01-25T13:47:07.390Z,95278
2019-01-25T13:48:16.939Z,95284
2019-01-25T13:49:26.560Z,95287
2019-01-25T13:50:36.067Z,95290
2019-01-25T13:51:45.638Z,95291
2019-01-25T13:52:55.204Z,95287
2019-01-25T13:54:04.785Z,95287
2019-01-25T13:55:14.315Z,95290
2019-01-25T13:56:23.836Z,95284
2019-01-25T13:57:33.377Z,95291
2019-01-25T13:58:42.953Z,95285
2019-01-25T13:59:52.484Z,95283
2019-01-25T14:01:02.031Z,95286
2019-01-25T14:02:11.545Z,95287
2019-01-25T14:03:21.052Z,95286
2019-01-25T14:04:30.618Z,95283
2019-01-25T14:05:40.143Z,95274
2019-01-25T14:06:49.734Z,95287
2019-01-25T14:07:59.282Z,95290
2019-01-25T14:09:07.872Z,95285
2019-01-25T14:10:17.421Z,95283
2019-01-25T14:11:26.933Z,95274
2019-01-25T14:12:36.498Z,95279
2019-01-25T14:13:46.868Z,95279
2019-01-25T14:14:55.642Z,95272
2019-01-25T14:16:05.152Z,95274
2019-01-25T14:17:14.658Z,95279
2019-01-25T14:18:24.189Z,95273
2019-01-25T14:19:33.751Z,95277
2019-01-25T14:20:43.312Z,95276
2019-01-25T14:21:53.846Z,95275
2019-01-25T14:23:03.390Z,95274
2019-01-25T14:24:16.541Z,95269
2019-01-25T14:25:22.518Z,95285
2019-01-25T14:26:32.048Z,95282
2019-01-25T14:27:41.585Z,95288
2019-01-25T14:28:51.102Z,95289
2019-01-25T14:30:00.661Z,95289
2019-01-25T14:31:10.179Z,95302
2019-01-25T14:32:19.743Z,95303
2019-01-25T14:33:29.274Z,95292
2019-01-25T14:34:38.836Z,95293
2019-01-25T14:35:48.365Z,95292
2019-01-25T14:36:57.889Z,95297
2019-01-25T14:38:07.409Z,95296
2019-01-25T14:39:17.001Z,95300
2019-01-25T14:40:26.529Z,95298
2019-01-25T14:41:36.054Z,95300
2019-01-25T14:42:45.584Z,95303
2019-01-25T14:43:55.130Z,95298
2019-01-25T14:45:04.679Z,95301
2019-01-25T14:46:14.211Z,95297
2019-01-25T14:47:23.729Z,95301
2019-01-25T14:48:38.056Z,95294
2019-01-25T14:49:42.804Z,95292
2019-01-25T14:50:52.334Z,95296
2019-01-25T14:52:01.900Z,95296
2019-01-25T14:53:11.422Z,95292
2019-01-25T14:54:21.006Z,95293
2019-01-25T14:55:30.551Z,95299